sensor_id;sensor_type;location;lat;lon;timestamp;temperature;humidity
70734;DHT22;58320;48.804;9.252;2022-10-10T00:01:08;11.00;88.20
70734;DHT22;58320;48.804;9.252;2022-10-10T00:03:34;11.10;88.20
70734;DHT22;58320;48.804;9.252;2022-10-10T00:06:00;11.10;88.00
70734;DHT22;58320;48.804;9.252;2022-10-10T00:08:26;11.10;87.90
70734;DHT22;58320;48.804;9.252;2022-10-10T00:10:51;11.10;88.00
70734;DHT22;58320;48.804;9.252;2022-10-10T00:13:17;11.10;87.90
70734;DHT22;58320;48.804;9.252;2022-10-10T00:15:43;11.10;87.90
70734;DHT22;58320;48.804;9.252;2022-10-10T00:18:09;11.10;87.90
70734;DHT22;58320;48.804;9.252;2022-10-10T00:20:35;11.10;88.00
70734;DHT22;58320;48.804;9.252;2022-10-10T00:23:00;11.20;87.80
70734;DHT22;58320;48.804;9.252;2022-10-10T00:25:27;11.20;87.70
70734;DHT22;58320;48.804;9.252;2022-10-10T00:27:53;11.20;87.70
70734;DHT22;58320;48.804;9.252;2022-10-10T00:30:19;11.20;87.70
70734;DHT22;58320;48.804;9.252;2022-10-10T00:32:44;11.30;87.50
70734;DHT22;58320;48.804;9.252;2022-10-10T00:35:10;11.30;87.30
70734;DHT22;58320;48.804;9.252;2022-10-10T00:37:36;11.30;87.20
70734;DHT22;58320;48.804;9.252;2022-10-10T00:40:03;11.30;87.00
70734;DHT22;58320;48.804;9.252;2022-10-10T00:42:30;11.40;87.00
70734;DHT22;58320;48.804;9.252;2022-10-10T00:45:37;11.40;87.00
70734;DHT22;58320;48.804;9.252;2022-10-10T00:50:59;11.40;87.20
70734;DHT22;58320;48.804;9.252;2022-10-10T00:53:34;11.40;87.10
70734;DHT22;58320;48.804;9.252;2022-10-10T00:56:05;11.40;87.30
70734;DHT22;58320;48.804;9.252;2022-10-10T00:58:31;11.40;87.10
70734;DHT22;58320;48.804;9.252;2022-10-10T01:00:58;11.40;87.00
70734;DHT22;58320;48.804;9.252;2022-10-10T01:03:25;11.40;87.10
70734;DHT22;58320;48.804;9.252;2022-10-10T01:05:50;11.40;87.10
70734;DHT22;58320;48.804;9.252;2022-10-10T01:08:17;11.40;87.20
70734;DHT22;58320;48.804;9.252;2022-10-10T01:22:36;11.30;87.90
70734;DHT22;58320;48.804;9.252;2022-10-10T01:25:26;11.30;88.10
70734;DHT22;58320;48.804;9.252;2022-10-10T01:30:46;11.20;88.30
70734;DHT22;58320;48.804;9.252;2022-10-10T01:33:20;11.30;88.30
70734;DHT22;58320;48.804;9.252;2022-10-10T01:36:00;11.20;88.20
70734;DHT22;58320;48.804;9.252;2022-10-10T01:41:15;11.20;88.40
70734;DHT22;58320;48.804;9.252;2022-10-10T01:43:42;11.20;88.40
70734;DHT22;58320;48.804;9.252;2022-10-10T01:46:15;11.20;88.40
70734;DHT22;58320;48.804;9.252;2022-10-10T01:48:44;11.20;88.50
70734;DHT22;58320;48.804;9.252;2022-10-10T02:02:21;11.20;88.50
70734;DHT22;58320;48.804;9.252;2022-10-10T02:05:21;11.20;88.60
70734;DHT22;58320;48.804;9.252;2022-10-10T02:08:39;11.20;88.60
70734;DHT22;58320;48.804;9.252;2022-10-10T02:10:48;11.20;88.60
70734;DHT22;58320;48.804;9.252;2022-10-10T02:13:17;11.20;88.70
70734;DHT22;58320;48.804;9.252;2022-10-10T02:15:52;11.20;88.60
70734;DHT22;58320;48.804;9.252;2022-10-10T02:18:24;11.20;88.70
70734;DHT22;58320;48.804;9.252;2022-10-10T02:20:52;11.10;88.70
70734;DHT22;58320;48.804;9.252;2022-10-10T02:23:20;11.10;88.80
70734;DHT22;58320;48.804;9.252;2022-10-10T02:25:51;11.20;88.70
70734;DHT22;58320;48.804;9.252;2022-10-10T02:30:52;11.20;88.70
70734;DHT22;58320;48.804;9.252;2022-10-10T02:33:37;11.20;88.90
70734;DHT22;58320;48.804;9.252;2022-10-10T02:36:16;11.20;88.80
70734;DHT22;58320;48.804;9.252;2022-10-10T02:38:44;11.20;88.80
70734;DHT22;58320;48.804;9.252;2022-10-10T02:41:13;11.20;88.90
70734;DHT22;58320;48.804;9.252;2022-10-10T02:43:41;11.10;88.90
70734;DHT22;58320;48.804;9.252;2022-10-10T02:46:11;11.10;89.10
70734;DHT22;58320;48.804;9.252;2022-10-10T02:48:38;11.10;89.20
70734;DHT22;58320;48.804;9.252;2022-10-10T02:51:05;11.10;89.20
70734;DHT22;58320;48.804;9.252;2022-10-10T02:53:31;11.00;89.40
70734;DHT22;58320;48.804;9.252;2022-10-10T02:55:58;11.00;89.40
70734;DHT22;58320;48.804;9.252;2022-10-10T02:58:24;11.00;89.80
70734;DHT22;58320;48.804;9.252;2022-10-10T03:00:49;11.00;89.90
70734;DHT22;58320;48.804;9.252;2022-10-10T03:03:15;11.00;90.00
70734;DHT22;58320;48.804;9.252;2022-10-10T03:05:41;10.90;90.50
70734;DHT22;58320;48.804;9.252;2022-10-10T03:08:07;10.90;90.70
70734;DHT22;58320;48.804;9.252;2022-10-10T03:10:33;10.90;90.80
70734;DHT22;58320;48.804;9.252;2022-10-10T03:12:58;10.90;91.00
70734;DHT22;58320;48.804;9.252;2022-10-10T03:15:24;10.80;91.20
70734;DHT22;58320;48.804;9.252;2022-10-10T03:17:50;10.80;91.10
70734;DHT22;58320;48.804;9.252;2022-10-10T03:20:16;10.80;91.00
70734;DHT22;58320;48.804;9.252;2022-10-10T03:22:41;10.80;91.30
70734;DHT22;58320;48.804;9.252;2022-10-10T03:25:07;10.80;91.10
70734;DHT22;58320;48.804;9.252;2022-10-10T03:27:33;10.80;91.10
70734;DHT22;58320;48.804;9.252;2022-10-10T03:29:59;10.90;91.20
70734;DHT22;58320;48.804;9.252;2022-10-10T03:32:24;10.80;91.30
70734;DHT22;58320;48.804;9.252;2022-10-10T03:34:50;10.80;91.30
70734;DHT22;58320;48.804;9.252;2022-10-10T03:37:16;10.80;91.20
70734;DHT22;58320;48.804;9.252;2022-10-10T03:39:42;10.80;91.30
70734;DHT22;58320;48.804;9.252;2022-10-10T03:42:07;10.80;91.40
70734;DHT22;58320;48.804;9.252;2022-10-10T03:44:33;10.80;91.60
70734;DHT22;58320;48.804;9.252;2022-10-10T03:46:59;10.80;91.50
70734;DHT22;58320;48.804;9.252;2022-10-10T03:49:25;10.80;91.80
70734;DHT22;58320;48.804;9.252;2022-10-10T03:51:51;10.80;91.80
70734;DHT22;58320;48.804;9.252;2022-10-10T03:54:18;10.80;91.80
70734;DHT22;58320;48.804;9.252;2022-10-10T03:56:44;10.80;91.80
70734;DHT22;58320;48.804;9.252;2022-10-10T03:59:10;10.80;91.90
70734;DHT22;58320;48.804;9.252;2022-10-10T04:01:36;10.80;91.90
70734;DHT22;58320;48.804;9.252;2022-10-10T04:04:02;10.80;91.90
70734;DHT22;58320;48.804;9.252;2022-10-10T04:06:29;10.80;92.00
70734;DHT22;58320;48.804;9.252;2022-10-10T04:08:55;10.90;91.90
70734;DHT22;58320;48.804;9.252;2022-10-10T04:11:21;10.90;91.80
70734;DHT22;58320;48.804;9.252;2022-10-10T04:13:46;10.90;91.90
70734;DHT22;58320;48.804;9.252;2022-10-10T04:16:12;-50.00;1.00
70734;DHT22;58320;48.804;9.252;2022-10-10T04:18:38;10.90;91.80
70734;DHT22;58320;48.804;9.252;2022-10-10T04:21:04;10.90;91.80
70734;DHT22;58320;48.804;9.252;2022-10-10T04:23:31;10.90;91.90
70734;DHT22;58320;48.804;9.252;2022-10-10T04:25:56;10.90;91.80
70734;DHT22;58320;48.804;9.252;2022-10-10T04:28:22;10.90;91.90
70734;DHT22;58320;48.804;9.252;2022-10-10T04:30:48;10.90;91.90
70734;DHT22;58320;48.804;9.252;2022-10-10T04:33:14;11.00;92.00
70734;DHT22;58320;48.804;9.252;2022-10-10T04:35:40;11.00;91.90
70734;DHT22;58320;48.804;9.252;2022-10-10T04:38:06;11.00;92.00
70734;DHT22;58320;48.804;9.252;2022-10-10T04:40:32;11.00;92.20
70734;DHT22;58320;48.804;9.252;2022-10-10T04:42:58;11.00;92.10
70734;DHT22;58320;48.804;9.252;2022-10-10T04:45:24;11.00;92.10
70734;DHT22;58320;48.804;9.252;2022-10-10T04:47:52;10.90;92.10
70734;DHT22;58320;48.804;9.252;2022-10-10T04:50:21;10.90;92.30
70734;DHT22;58320;48.804;9.252;2022-10-10T04:52:47;10.90;93.00
70734;DHT22;58320;48.804;9.252;2022-10-10T04:55:13;10.90;93.10
70734;DHT22;58320;48.804;9.252;2022-10-10T04:57:39;10.90;93.40
70734;DHT22;58320;48.804;9.252;2022-10-10T05:00:05;10.90;93.40
70734;DHT22;58320;48.804;9.252;2022-10-10T05:02:32;10.90;93.60
70734;DHT22;58320;48.804;9.252;2022-10-10T05:04:57;10.80;94.00
70734;DHT22;58320;48.804;9.252;2022-10-10T05:07:23;10.80;94.00
70734;DHT22;58320;48.804;9.252;2022-10-10T05:09:49;10.80;94.20
70734;DHT22;58320;48.804;9.252;2022-10-10T05:12:15;10.80;94.60
70734;DHT22;58320;48.804;9.252;2022-10-10T05:14:41;10.90;94.80
70734;DHT22;58320;48.804;9.252;2022-10-10T05:17:07;10.90;94.20
70734;DHT22;58320;48.804;9.252;2022-10-10T05:19:33;10.90;94.30
70734;DHT22;58320;48.804;9.252;2022-10-10T05:21:59;10.90;94.20
70734;DHT22;58320;48.804;9.252;2022-10-10T05:24:25;10.90;94.30
70734;DHT22;58320;48.804;9.252;2022-10-10T05:26:50;10.90;94.50
70734;DHT22;58320;48.804;9.252;2022-10-10T05:29:16;10.90;94.30
70734;DHT22;58320;48.804;9.252;2022-10-10T05:31:42;10.90;94.20
70734;DHT22;58320;48.804;9.252;2022-10-10T05:34:12;10.80;94.00
70734;DHT22;58320;48.804;9.252;2022-10-10T05:36:42;10.80;93.80
70734;DHT22;58320;48.804;9.252;2022-10-10T05:39:08;10.70;93.80
70734;DHT22;58320;48.804;9.252;2022-10-10T05:41:34;10.80;94.00
70734;DHT22;58320;48.804;9.252;2022-10-10T05:44:00;10.70;93.80
70734;DHT22;58320;48.804;9.252;2022-10-10T05:46:26;10.70;93.90
70734;DHT22;58320;48.804;9.252;2022-10-10T05:48:52;10.70;94.00
70734;DHT22;58320;48.804;9.252;2022-10-10T05:51:19;10.70;93.90
70734;DHT22;58320;48.804;9.252;2022-10-10T05:53:46;10.90;93.90
70734;DHT22;58320;48.804;9.252;2022-10-10T05:56:12;10.60;94.50
70734;DHT22;58320;48.804;9.252;2022-10-10T05:58:41;10.70;94.70
70734;DHT22;58320;48.804;9.252;2022-10-10T06:01:08;10.70;95.00
70734;DHT22;58320;48.804;9.252;2022-10-10T06:03:34;10.80;95.80
70734;DHT22;58320;48.804;9.252;2022-10-10T06:06:00;10.90;95.50
70734;DHT22;58320;48.804;9.252;2022-10-10T06:08:27;11.00;95.20
70734;DHT22;58320;48.804;9.252;2022-10-10T06:11:03;11.00;95.00
70734;DHT22;58320;48.804;9.252;2022-10-10T06:13:32;11.10;94.60
70734;DHT22;58320;48.804;9.252;2022-10-10T06:15:58;11.20;94.40
70734;DHT22;58320;48.804;9.252;2022-10-10T06:18:25;11.30;94.40
70734;DHT22;58320;48.804;9.252;2022-10-10T06:20:51;11.40;94.20
70734;DHT22;58320;48.804;9.252;2022-10-10T06:23:17;11.40;94.20
70734;DHT22;58320;48.804;9.252;2022-10-10T06:25:45;11.50;93.80
70734;DHT22;58320;48.804;9.252;2022-10-10T06:28:11;11.60;92.90
70734;DHT22;58320;48.804;9.252;2022-10-10T06:30:42;11.80;92.30
70734;DHT22;58320;48.804;9.252;2022-10-10T06:33:09;11.90;92.20
70734;DHT22;58320;48.804;9.252;2022-10-10T06:35:41;12.00;91.90
70734;DHT22;58320;48.804;9.252;2022-10-10T06:38:07;12.10;91.80
70734;DHT22;58320;48.804;9.252;2022-10-10T06:40:33;12.30;91.30
70734;DHT22;58320;48.804;9.252;2022-10-10T06:42:59;12.40;90.80
70734;DHT22;58320;48.804;9.252;2022-10-10T06:45:25;12.50;90.00
70734;DHT22;58320;48.804;9.252;2022-10-10T06:47:51;12.60;88.40
70734;DHT22;58320;48.804;9.252;2022-10-10T06:50:17;12.70;87.40
70734;DHT22;58320;48.804;9.252;2022-10-10T06:52:42;12.70;88.00
70734;DHT22;58320;48.804;9.252;2022-10-10T06:55:08;12.70;88.20
70734;DHT22;58320;48.804;9.252;2022-10-10T06:57:34;12.70;88.00
70734;DHT22;58320;48.804;9.252;2022-10-10T07:00:00;12.70;87.70
70734;DHT22;58320;48.804;9.252;2022-10-10T07:02:26;12.70;87.80
70734;DHT22;58320;48.804;9.252;2022-10-10T07:04:52;12.70;87.20
70734;DHT22;58320;48.804;9.252;2022-10-10T07:07:18;12.70;87.20
70734;DHT22;58320;48.804;9.252;2022-10-10T07:09:44;12.80;87.20
70734;DHT22;58320;48.804;9.252;2022-10-10T07:12:10;13.00;85.50
70734;DHT22;58320;48.804;9.252;2022-10-10T07:14:36;13.00;84.60
70734;DHT22;58320;48.804;9.252;2022-10-10T07:17:01;13.10;84.50
70734;DHT22;58320;48.804;9.252;2022-10-10T07:19:27;13.20;84.80
70734;DHT22;58320;48.804;9.252;2022-10-10T07:21:53;13.20;84.70
70734;DHT22;58320;48.804;9.252;2022-10-10T07:24:19;13.20;84.60
70734;DHT22;58320;48.804;9.252;2022-10-10T07:26:44;13.30;84.50
70734;DHT22;58320;48.804;9.252;2022-10-10T07:29:10;13.60;83.10
70734;DHT22;58320;48.804;9.252;2022-10-10T07:31:36;13.80;82.10
70734;DHT22;58320;48.804;9.252;2022-10-10T07:34:04;13.90;80.20
70734;DHT22;58320;48.804;9.252;2022-10-10T07:36:30;13.90;80.20
70734;DHT22;58320;48.804;9.252;2022-10-10T07:38:56;13.90;80.30
70734;DHT22;58320;48.804;9.252;2022-10-10T07:41:22;13.90;79.90
70734;DHT22;58320;48.804;9.252;2022-10-10T07:43:53;14.00;79.90
70734;DHT22;58320;48.804;9.252;2022-10-10T07:46:20;14.10;79.60
70734;DHT22;58320;48.804;9.252;2022-10-10T07:48:46;14.10;79.60
70734;DHT22;58320;48.804;9.252;2022-10-10T07:51:13;14.10;79.30
70734;DHT22;58320;48.804;9.252;2022-10-10T07:53:40;14.00;79.50
70734;DHT22;58320;48.804;9.252;2022-10-10T07:56:07;14.00;80.10
70734;DHT22;58320;48.804;9.252;2022-10-10T07:58:34;14.00;80.30
70734;DHT22;58320;48.804;9.252;2022-10-10T08:01:05;14.10;79.90
70734;DHT22;58320;48.804;9.252;2022-10-10T08:03:34;14.30;78.90
70734;DHT22;58320;48.804;9.252;2022-10-10T08:06:06;14.40;78.50
70734;DHT22;58320;48.804;9.252;2022-10-10T08:08:34;14.40;77.90
70734;DHT22;58320;48.804;9.252;2022-10-10T08:11:02;14.60;77.70
70734;DHT22;58320;48.804;9.252;2022-10-10T08:13:29;14.70;77.30
70734;DHT22;58320;48.804;9.252;2022-10-10T08:15:55;14.80;77.30
70734;DHT22;58320;48.804;9.252;2022-10-10T08:18:21;14.90;77.60
70734;DHT22;58320;48.804;9.252;2022-10-10T08:20:47;15.10;76.00
70734;DHT22;58320;48.804;9.252;2022-10-10T08:23:12;15.10;76.60
70734;DHT22;58320;48.804;9.252;2022-10-10T08:25:38;15.10;76.20
70734;DHT22;58320;48.804;9.252;2022-10-10T08:28:04;15.10;76.00
70734;DHT22;58320;48.804;9.252;2022-10-10T08:30:30;15.30;76.00
70734;DHT22;58320;48.804;9.252;2022-10-10T08:32:56;15.30;75.80
70734;DHT22;58320;48.804;9.252;2022-10-10T08:35:21;15.30;76.10
70734;DHT22;58320;48.804;9.252;2022-10-10T08:37:47;15.20;75.90
70734;DHT22;58320;48.804;9.252;2022-10-10T08:40:18;15.10;76.40
70734;DHT22;58320;48.804;9.252;2022-10-10T08:42:51;15.10;76.90
70734;DHT22;58320;48.804;9.252;2022-10-10T08:45:24;15.20;76.80
70734;DHT22;58320;48.804;9.252;2022-10-10T08:48:05;15.30;76.50
70734;DHT22;58320;48.804;9.252;2022-10-10T08:50:37;15.40;76.50
70734;DHT22;58320;48.804;9.252;2022-10-10T08:53:42;15.50;75.90
70734;DHT22;58320;48.804;9.252;2022-10-10T08:56:05;15.60;75.20
70734;DHT22;58320;48.804;9.252;2022-10-10T08:58:35;15.80;75.00
70734;DHT22;58320;48.804;9.252;2022-10-10T09:01:26;16.10;73.80
70734;DHT22;58320;48.804;9.252;2022-10-10T09:04:01;16.40;72.70
70734;DHT22;58320;48.804;9.252;2022-10-10T09:18:52;16.80;70.90
70734;DHT22;58320;48.804;9.252;2022-10-10T09:21:33;16.80;71.90
70734;DHT22;58320;48.804;9.252;2022-10-10T09:26:55;16.70;72.00
70734;DHT22;58320;48.804;9.252;2022-10-10T09:32:26;17.10;71.10
70734;DHT22;58320;48.804;9.252;2022-10-10T09:35:21;17.40;70.00
70734;DHT22;58320;48.804;9.252;2022-10-10T09:38:39;17.60;69.30
70734;DHT22;58320;48.804;9.252;2022-10-10T09:43:38;18.10;69.00
70734;DHT22;58320;48.804;9.252;2022-10-10T09:46:05;17.90;68.40
70734;DHT22;58320;48.804;9.252;2022-10-10T09:48:36;17.80;69.30
70734;DHT22;58320;48.804;9.252;2022-10-10T09:51:07;17.70;69.20
70734;DHT22;58320;48.804;9.252;2022-10-10T09:53:36;17.60;70.00
70734;DHT22;58320;48.804;9.252;2022-10-10T09:56:03;17.70;69.50
70734;DHT22;58320;48.804;9.252;2022-10-10T09:58:40;18.00;69.10
70734;DHT22;58320;48.804;9.252;2022-10-10T10:04:18;18.50;66.50
70734;DHT22;58320;48.804;9.252;2022-10-10T10:07:03;18.50;67.60
70734;DHT22;58320;48.804;9.252;2022-10-10T10:09:31;18.50;66.70
70734;DHT22;58320;48.804;9.252;2022-10-10T10:11:58;18.50;67.60
70734;DHT22;58320;48.804;9.252;2022-10-10T10:14:35;18.70;67.60
70734;DHT22;58320;48.804;9.252;2022-10-10T10:17:11;19.00;66.90
70734;DHT22;58320;48.804;9.252;2022-10-10T10:19:40;19.20;66.10
70734;DHT22;58320;48.804;9.252;2022-10-10T10:22:31;19.40;65.90
70734;DHT22;58320;48.804;9.252;2022-10-10T10:25:38;19.50;64.90
70734;DHT22;58320;48.804;9.252;2022-10-10T10:30:39;19.80;63.60
70734;DHT22;58320;48.804;9.252;2022-10-10T10:35:58;20.60;64.00
70734;DHT22;58320;48.804;9.252;2022-10-10T10:55:44;22.20;57.60
70734;DHT22;58320;48.804;9.252;2022-10-10T11:01:29;22.50;57.50
70734;DHT22;58320;48.804;9.252;2022-10-10T11:04:03;22.20;56.90
70734;DHT22;58320;48.804;9.252;2022-10-10T11:06:48;21.90;57.80
70734;DHT22;58320;48.804;9.252;2022-10-10T11:09:34;21.40;58.70
70734;DHT22;58320;48.804;9.252;2022-10-10T11:15:25;22.00;60.90
70734;DHT22;58320;48.804;9.252;2022-10-10T11:20:26;24.60;51.50
70734;DHT22;58320;48.804;9.252;2022-10-10T11:23:17;25.10;50.50
70734;DHT22;58320;48.804;9.252;2022-10-10T11:28:49;24.90;50.90
70734;DHT22;58320;48.804;9.252;2022-10-10T11:31:27;25.50;48.60
70734;DHT22;58320;48.804;9.252;2022-10-10T11:34:05;25.90;48.70
70734;DHT22;58320;48.804;9.252;2022-10-10T11:36:37;26.50;46.10
70734;DHT22;58320;48.804;9.252;2022-10-10T11:42:36;27.00;45.80
70734;DHT22;58320;48.804;9.252;2022-10-10T11:45:27;26.30;46.90
70734;DHT22;58320;48.804;9.252;2022-10-10T11:50:42;26.80;45.50
70734;DHT22;58320;48.804;9.252;2022-10-10T11:53:35;26.40;46.40
70734;DHT22;58320;48.804;9.252;2022-10-10T11:58:52;27.40;45.60
70734;DHT22;58320;48.804;9.252;2022-10-10T12:01:30;28.00;43.80
70734;DHT22;58320;48.804;9.252;2022-10-10T12:03:59;27.70;43.40
70734;DHT22;58320;48.804;9.252;2022-10-10T12:06:32;27.60;43.20
70734;DHT22;58320;48.804;9.252;2022-10-10T12:09:09;27.00;44.30
70734;DHT22;58320;48.804;9.252;2022-10-10T12:11:59;27.10;45.00
70734;DHT22;58320;48.804;9.252;2022-10-10T12:14:29;26.70;45.50
70734;DHT22;58320;48.804;9.252;2022-10-10T12:16:57;26.20;45.70
70734;DHT22;58320;48.804;9.252;2022-10-10T12:19:26;26.30;45.70
70734;DHT22;58320;48.804;9.252;2022-10-10T12:21:54;26.10;45.40
70734;DHT22;58320;48.804;9.252;2022-10-10T12:24:21;26.00;46.60
70734;DHT22;58320;48.804;9.252;2022-10-10T12:37:24;26.70;45.10
70734;DHT22;58320;48.804;9.252;2022-10-10T12:42:35;27.30;43.70
70734;DHT22;58320;48.804;9.252;2022-10-10T12:45:41;26.70;44.20
70734;DHT22;58320;48.804;9.252;2022-10-10T12:50:37;24.70;46.90
70734;DHT22;58320;48.804;9.252;2022-10-10T12:55:46;24.10;48.90
70734;DHT22;58320;48.804;9.252;2022-10-10T12:58:25;24.00;49.40
70734;DHT22;58320;48.804;9.252;2022-10-10T13:00:52;23.80;49.90
70734;DHT22;58320;48.804;9.252;2022-10-10T13:03:30;23.70;50.40
70734;DHT22;58320;48.804;9.252;2022-10-10T13:06:44;23.60;50.50
70734;DHT22;58320;48.804;9.252;2022-10-10T13:08:55;23.60;50.90
70734;DHT22;58320;48.804;9.252;2022-10-10T13:11:22;23.50;51.30
70734;DHT22;58320;48.804;9.252;2022-10-10T13:13:55;23.40;51.10
70734;DHT22;58320;48.804;9.252;2022-10-10T13:16:27;23.30;51.70
70734;DHT22;58320;48.804;9.252;2022-10-10T13:18:55;23.30;52.00
70734;DHT22;58320;48.804;9.252;2022-10-10T13:21:27;23.20;52.30
70734;DHT22;58320;48.804;9.252;2022-10-10T13:23:58;23.00;52.80
70734;DHT22;58320;48.804;9.252;2022-10-10T13:26:30;22.60;53.10
70734;DHT22;58320;48.804;9.252;2022-10-10T13:28:59;22.20;54.00
70734;DHT22;58320;48.804;9.252;2022-10-10T13:31:50;21.90;55.10
70734;DHT22;58320;48.804;9.252;2022-10-10T13:34:22;21.50;56.40
70734;DHT22;58320;48.804;9.252;2022-10-10T13:36:55;21.30;57.20
70734;DHT22;58320;48.804;9.252;2022-10-10T13:39:22;21.10;57.00
70734;DHT22;58320;48.804;9.252;2022-10-10T13:41:49;21.20;57.20
70734;DHT22;58320;48.804;9.252;2022-10-10T13:44:28;21.60;57.10
70734;DHT22;58320;48.804;9.252;2022-10-10T13:46:56;22.20;55.90
70734;DHT22;58320;48.804;9.252;2022-10-10T13:49:25;22.90;53.90
70734;DHT22;58320;48.804;9.252;2022-10-10T13:52:04;23.70;52.10
70734;DHT22;58320;48.804;9.252;2022-10-10T14:00:13;25.50;44.50
70734;DHT22;58320;48.804;9.252;2022-10-10T14:02:43;25.40;45.70
70734;DHT22;58320;48.804;9.252;2022-10-10T14:05:30;25.30;45.40
70734;DHT22;58320;48.804;9.252;2022-10-10T14:07:57;25.10;46.50
70734;DHT22;58320;48.804;9.252;2022-10-10T14:10:25;24.90;46.40
70734;DHT22;58320;48.804;9.252;2022-10-10T14:13:01;24.80;45.60
70734;DHT22;58320;48.804;9.252;2022-10-10T14:15:44;24.70;46.10
70734;DHT22;58320;48.804;9.252;2022-10-10T14:18:37;24.90;47.60
70734;DHT22;58320;48.804;9.252;2022-10-10T14:21:03;25.10;45.30
70734;DHT22;58320;48.804;9.252;2022-10-10T14:23:29;25.20;46.30
70734;DHT22;58320;48.804;9.252;2022-10-10T14:25:56;25.20;46.20
70734;DHT22;58320;48.804;9.252;2022-10-10T14:28:28;25.20;46.40
70734;DHT22;58320;48.804;9.252;2022-10-10T14:30:56;25.10;46.10
70734;DHT22;58320;48.804;9.252;2022-10-10T14:33:22;24.90;47.20
70734;DHT22;58320;48.804;9.252;2022-10-10T14:35:51;24.80;47.60
70734;DHT22;58320;48.804;9.252;2022-10-10T14:38:18;24.70;46.80
70734;DHT22;58320;48.804;9.252;2022-10-10T14:40:46;24.60;47.50
70734;DHT22;58320;48.804;9.252;2022-10-10T14:43:14;24.60;47.40
70734;DHT22;58320;48.804;9.252;2022-10-10T14:45:41;24.60;47.20
70734;DHT22;58320;48.804;9.252;2022-10-10T14:48:09;24.80;46.40
70734;DHT22;58320;48.804;9.252;2022-10-10T14:50:40;25.00;46.60
70734;DHT22;58320;48.804;9.252;2022-10-10T14:53:09;25.20;46.30
70734;DHT22;58320;48.804;9.252;2022-10-10T14:55:35;25.30;45.50
70734;DHT22;58320;48.804;9.252;2022-10-10T14:58:02;25.10;46.00
70734;DHT22;58320;48.804;9.252;2022-10-10T15:00:28;24.80;46.40
70734;DHT22;58320;48.804;9.252;2022-10-10T15:02:54;24.40;46.70
70734;DHT22;58320;48.804;9.252;2022-10-10T15:05:21;24.10;47.30
70734;DHT22;58320;48.804;9.252;2022-10-10T15:07:47;23.80;47.30
70734;DHT22;58320;48.804;9.252;2022-10-10T15:10:15;23.50;48.10
70734;DHT22;58320;48.804;9.252;2022-10-10T15:12:43;23.30;49.10
70734;DHT22;58320;48.804;9.252;2022-10-10T15:15:11;23.20;49.90
70734;DHT22;58320;48.804;9.252;2022-10-10T15:17:38;23.20;48.90
70734;DHT22;58320;48.804;9.252;2022-10-10T15:20:06;23.20;48.70
70734;DHT22;58320;48.804;9.252;2022-10-10T15:22:33;23.20;48.50
70734;DHT22;58320;48.804;9.252;2022-10-10T15:25:00;23.30;48.80
70734;DHT22;58320;48.804;9.252;2022-10-10T15:27:26;23.40;48.10
70734;DHT22;58320;48.804;9.252;2022-10-10T15:29:57;23.60;47.80
70734;DHT22;58320;48.804;9.252;2022-10-10T15:32:23;23.70;46.80
70734;DHT22;58320;48.804;9.252;2022-10-10T15:34:50;23.50;47.30
70734;DHT22;58320;48.804;9.252;2022-10-10T15:37:16;23.40;47.70
70734;DHT22;58320;48.804;9.252;2022-10-10T15:39:42;23.40;48.00
70734;DHT22;58320;48.804;9.252;2022-10-10T15:42:10;23.60;47.80
70734;DHT22;58320;48.804;9.252;2022-10-10T15:44:36;23.50;47.30
70734;DHT22;58320;48.804;9.252;2022-10-10T15:47:02;23.40;47.70
70734;DHT22;58320;48.804;9.252;2022-10-10T15:49:28;23.20;48.40
70734;DHT22;58320;48.804;9.252;2022-10-10T15:51:54;23.30;48.60
70734;DHT22;58320;48.804;9.252;2022-10-10T15:54:20;23.30;48.10
70734;DHT22;58320;48.804;9.252;2022-10-10T15:56:46;23.30;47.90
70734;DHT22;58320;48.804;9.252;2022-10-10T15:59:11;23.10;48.10
70734;DHT22;58320;48.804;9.252;2022-10-10T16:01:38;23.00;48.70
70734;DHT22;58320;48.804;9.252;2022-10-10T16:04:04;22.80;49.30
70734;DHT22;58320;48.804;9.252;2022-10-10T16:06:31;22.60;49.70
70734;DHT22;58320;48.804;9.252;2022-10-10T16:08:57;22.40;50.10
70734;DHT22;58320;48.804;9.252;2022-10-10T16:11:24;22.20;51.20
70734;DHT22;58320;48.804;9.252;2022-10-10T16:13:52;21.90;52.00
70734;DHT22;58320;48.804;9.252;2022-10-10T16:16:20;21.70;53.20
70734;DHT22;58320;48.804;9.252;2022-10-10T16:18:47;21.50;54.40
70734;DHT22;58320;48.804;9.252;2022-10-10T16:21:15;21.20;55.50
70734;DHT22;58320;48.804;9.252;2022-10-10T16:23:43;21.00;56.30
70734;DHT22;58320;48.804;9.252;2022-10-10T16:26:15;20.70;57.30
70734;DHT22;58320;48.804;9.252;2022-10-10T16:28:46;20.40;58.30
70734;DHT22;58320;48.804;9.252;2022-10-10T16:31:14;20.10;59.30
70734;DHT22;58320;48.804;9.252;2022-10-10T16:33:41;19.80;60.20
70734;DHT22;58320;48.804;9.252;2022-10-10T16:36:16;19.60;60.90
70734;DHT22;58320;48.804;9.252;2022-10-10T16:38:44;19.30;61.60
70734;DHT22;58320;48.804;9.252;2022-10-10T16:41:13;19.20;62.10
70734;DHT22;58320;48.804;9.252;2022-10-10T16:43:41;19.00;62.70
70734;DHT22;58320;48.804;9.252;2022-10-10T16:46:14;18.80;63.00
70734;DHT22;58320;48.804;9.252;2022-10-10T16:48:41;18.70;63.50
70734;DHT22;58320;48.804;9.252;2022-10-10T16:51:10;18.50;64.00
70734;DHT22;58320;48.804;9.252;2022-10-10T16:53:38;18.30;64.40
70734;DHT22;58320;48.804;9.252;2022-10-10T16:56:07;18.20;64.90
70734;DHT22;58320;48.804;9.252;2022-10-10T16:58:38;18.00;65.20
70734;DHT22;58320;48.804;9.252;2022-10-10T17:01:08;17.90;65.50
70734;DHT22;58320;48.804;9.252;2022-10-10T17:03:38;17.80;65.80
70734;DHT22;58320;48.804;9.252;2022-10-10T17:06:10;17.70;65.70
70734;DHT22;58320;48.804;9.252;2022-10-10T17:08:48;17.70;65.70
70734;DHT22;58320;48.804;9.252;2022-10-10T17:11:16;17.60;65.80
70734;DHT22;58320;48.804;9.252;2022-10-10T17:13:43;17.60;66.00
70734;DHT22;58320;48.804;9.252;2022-10-10T17:16:21;17.50;66.10
70734;DHT22;58320;48.804;9.252;2022-10-10T17:18:48;17.40;66.50
70734;DHT22;58320;48.804;9.252;2022-10-10T17:21:17;17.30;66.80
70734;DHT22;58320;48.804;9.252;2022-10-10T17:23:47;17.20;67.30
70734;DHT22;58320;48.804;9.252;2022-10-10T17:26:18;17.10;68.10
70734;DHT22;58320;48.804;9.252;2022-10-10T17:28:48;17.00;68.50
70734;DHT22;58320;48.804;9.252;2022-10-10T17:31:15;17.00;68.70
70734;DHT22;58320;48.804;9.252;2022-10-10T17:33:42;17.00;69.00
70734;DHT22;58320;48.804;9.252;2022-10-10T17:36:17;16.80;69.10
70734;DHT22;58320;48.804;9.252;2022-10-10T17:38:45;16.80;69.50
70734;DHT22;58320;48.804;9.252;2022-10-10T17:41:13;16.70;69.80
70734;DHT22;58320;48.804;9.252;2022-10-10T17:43:40;16.70;69.90
70734;DHT22;58320;48.804;9.252;2022-10-10T17:46:12;16.60;70.20
70734;DHT22;58320;48.804;9.252;2022-10-10T17:48:39;16.60;70.50
70734;DHT22;58320;48.804;9.252;2022-10-10T17:51:13;16.70;70.20